Terminal Aerodrome Forecast
Issued by NWS Charleston, WV

Current Version | Previous Version | Graphics & Text | Print | Product List | Glossary On
Versions: 1 2 3 4 5 6 7 8 9 10 11 12 13 14 15 16 17 18 19 20 21 22
277
FTUS41 KRLX 080548
TAFPKB
TAF
KPKB 080548Z 0806/0906 26003KT P6SM OVC100
     FM081300 25007KT P6SM BKN080
     FM081500 27008G14KT P6SM BKN035
     FM081700 27009G16KT P6SM SCT035
     FM082100 27010G20KT P6SM BKN040
     FM090100 28009G17KT P6SM BKN025=

USA.gov is the U.S. government's official web portal to all federal, state and local government web resources and services.